sensor_id;sensor_type;location;lat;lon;timestamp;P1;P2;P0
70922;PMS5003;58573;28.942;-13.688;2023-01-28T00:01:26;6;5;
70922;PMS5003;58573;28.942;-13.688;2023-01-28T00:03:52;7;5;
70922;PMS5003;58573;28.942;-13.688;2023-01-28T00:06:18;7;7;
70922;PMS5003;58573;28.942;-13.688;2023-01-28T00:08:43;3;3;
70922;PMS5003;58573;28.942;-13.688;2023-01-28T00:11:10;12;10;
70922;PMS5003;58573;28.942;-13.688;2023-01-28T00:13:34;10;8;
70922;PMS5003;58573;28.942;-13.688;2023-01-28T00:16:01;12;11;
70922;PMS5003;58573;28.942;-13.688;2023-01-28T00:18:25;15;15;
70922;PMS5003;58573;28.942;-13.688;2023-01-28T00:20:55;22;20;
70922;PMS5003;58573;28.942;-13.688;2023-01-28T00:23:17;18;17;
70922;PMS5003;58573;28.942;-13.688;2023-01-28T00:25:42;13;13;
70922;PMS5003;58573;28.942;-13.688;2023-01-28T00:28:08;8;8;
70922;PMS5003;58573;28.942;-13.688;2023-01-28T00:30:34;4;3;
70922;PMS5003;58573;28.942;-13.688;2023-01-28T00:32:59;4;3;
70922;PMS5003;58573;28.942;-13.688;2023-01-28T00:35:25;5;4;
70922;PMS5003;58573;28.942;-13.688;2023-01-28T00:37:50;1;1;
70922;PMS5003;58573;28.942;-13.688;2023-01-28T00:40:16;2;2;
70922;PMS5003;58573;28.942;-13.688;2023-01-28T00:42:41;2;2;
70922;PMS5003;58573;28.942;-13.688;2023-01-28T00:45:07;5;3;
70922;PMS5003;58573;28.942;-13.688;2023-01-28T00:47:32;3;2;
70922;PMS5003;58573;28.942;-13.688;2023-01-28T00:49:57;3;2;
70922;PMS5003;58573;28.942;-13.688;2023-01-28T00:52:23;3;3;
70922;PMS5003;58573;28.942;-13.688;2023-01-28T00:54:48;1;1;
70922;PMS5003;58573;28.942;-13.688;2023-01-28T00:57:14;4;3;
70922;PMS5003;58573;28.942;-13.688;2023-01-28T00:59:39;2;2;
70922;PMS5003;58573;28.942;-13.688;2023-01-28T01:02:04;2;2;
70922;PMS5003;58573;28.942;-13.688;2023-01-28T01:04:30;4;2;
70922;PMS5003;58573;28.942;-13.688;2023-01-28T01:06:56;3;2;
70922;PMS5003;58573;28.942;-13.688;2023-01-28T01:09:21;1;1;
70922;PMS5003;58573;28.942;-13.688;2023-01-28T01:11:47;3;3;
70922;PMS5003;58573;28.942;-13.688;2023-01-28T01:14:12;15;15;
70922;PMS5003;58573;28.942;-13.688;2023-01-28T01:16:38;4;2;
70922;PMS5003;58573;28.942;-13.688;2023-01-28T01:19:04;2;1;
70922;PMS5003;58573;28.942;-13.688;2023-01-28T01:21:29;2;1;
70922;PMS5003;58573;28.942;-13.688;2023-01-28T01:23:55;2;2;
70922;PMS5003;58573;28.942;-13.688;2023-01-28T01:26:21;1;1;
70922;PMS5003;58573;28.942;-13.688;2023-01-28T01:28:46;1;1;
70922;PMS5003;58573;28.942;-13.688;2023-01-28T01:31:13;1;1;
70922;PMS5003;58573;28.942;-13.688;2023-01-28T01:33:37;3;2;
70922;PMS5003;58573;28.942;-13.688;2023-01-28T01:36:03;1;1;
70922;PMS5003;58573;28.942;-13.688;2023-01-28T01:38:29;3;2;
70922;PMS5003;58573;28.942;-13.688;2023-01-28T01:40:55;3;1;
70922;PMS5003;58573;28.942;-13.688;2023-01-28T01:43:21;1;1;
70922;PMS5003;58573;28.942;-13.688;2023-01-28T01:45:46;3;2;
70922;PMS5003;58573;28.942;-13.688;2023-01-28T01:48:13;1;0;
70922;PMS5003;58573;28.942;-13.688;2023-01-28T01:50:38;1;1;
70922;PMS5003;58573;28.942;-13.688;2023-01-28T01:53:03;2;2;
70922;PMS5003;58573;28.942;-13.688;2023-01-28T01:55:29;1;1;
70922;PMS5003;58573;28.942;-13.688;2023-01-28T01:57:54;2;2;
70922;PMS5003;58573;28.942;-13.688;2023-01-28T02:00:19;1;1;
70922;PMS5003;58573;28.942;-13.688;2023-01-28T02:02:45;1;1;
70922;PMS5003;58573;28.942;-13.688;2023-01-28T02:05:11;1;1;
70922;PMS5003;58573;28.942;-13.688;2023-01-28T02:07:36;2;2;
70922;PMS5003;58573;28.942;-13.688;2023-01-28T02:10:01;2;2;
70922;PMS5003;58573;28.942;-13.688;2023-01-28T02:12:28;1;0;
70922;PMS5003;58573;28.942;-13.688;2023-01-28T02:14:53;5;2;
70922;PMS5003;58573;28.942;-13.688;2023-01-28T02:17:18;1;1;
70922;PMS5003;58573;28.942;-13.688;2023-01-28T02:19:45;1;1;
70922;PMS5003;58573;28.942;-13.688;2023-01-28T02:24:42;2;2;
70922;PMS5003;58573;28.942;-13.688;2023-01-28T02:27:06;3;3;
70922;PMS5003;58573;28.942;-13.688;2023-01-28T02:29:27;4;3;
70922;PMS5003;58573;28.942;-13.688;2023-01-28T02:31:52;3;2;
70922;PMS5003;58573;28.942;-13.688;2023-01-28T02:34:18;5;5;
70922;PMS5003;58573;28.942;-13.688;2023-01-28T02:36:44;2;2;
70922;PMS5003;58573;28.942;-13.688;2023-01-28T02:39:10;3;2;
70922;PMS5003;58573;28.942;-13.688;2023-01-28T02:41:34;4;4;
70922;PMS5003;58573;28.942;-13.688;2023-01-28T02:44:00;4;4;
70922;PMS5003;58573;28.942;-13.688;2023-01-28T02:48:50;4;4;
70922;PMS5003;58573;28.942;-13.688;2023-01-28T02:51:17;7;5;
70922;PMS5003;58573;28.942;-13.688;2023-01-28T02:53:43;3;3;
70922;PMS5003;58573;28.942;-13.688;2023-01-28T02:56:09;5;5;
70922;PMS5003;58573;28.942;-13.688;2023-01-28T02:58:33;5;4;
70922;PMS5003;58573;28.942;-13.688;2023-01-28T03:00:59;4;4;
70922;PMS5003;58573;28.942;-13.688;2023-01-28T03:03:25;7;6;
70922;PMS5003;58573;28.942;-13.688;2023-01-28T03:05:49;7;6;
70922;PMS5003;58573;28.942;-13.688;2023-01-28T03:08:14;5;5;
70922;PMS5003;58573;28.942;-13.688;2023-01-28T03:10:39;7;5;
70922;PMS5003;58573;28.942;-13.688;2023-01-28T03:13:05;6;5;
70922;PMS5003;58573;28.942;-13.688;2023-01-28T03:15:31;4;3;
70922;PMS5003;58573;28.942;-13.688;2023-01-28T03:17:57;3;2;
70922;PMS5003;58573;28.942;-13.688;2023-01-28T03:20:21;3;3;
70922;PMS5003;58573;28.942;-13.688;2023-01-28T03:22:47;8;8;
70922;PMS5003;58573;28.942;-13.688;2023-01-28T03:25:12;5;4;
70922;PMS5003;58573;28.942;-13.688;2023-01-28T03:27:39;3;2;
70922;PMS5003;58573;28.942;-13.688;2023-01-28T03:30:05;6;4;
70922;PMS5003;58573;28.942;-13.688;2023-01-28T03:32:29;6;5;
70922;PMS5003;58573;28.942;-13.688;2023-01-28T03:34:54;11;10;
70922;PMS5003;58573;28.942;-13.688;2023-01-28T03:37:19;9;8;
70922;PMS5003;58573;28.942;-13.688;2023-01-28T03:39:45;9;9;
70922;PMS5003;58573;28.942;-13.688;2023-01-28T03:42:11;12;10;
70922;PMS5003;58573;28.942;-13.688;2023-01-28T03:44:36;9;7;
70922;PMS5003;58573;28.942;-13.688;2023-01-28T03:47:02;5;4;
70922;PMS5003;58573;28.942;-13.688;2023-01-28T03:49:27;8;7;
70922;PMS5003;58573;28.942;-13.688;2023-01-28T03:51:53;2;2;
70922;PMS5003;58573;28.942;-13.688;2023-01-28T03:54:18;5;4;
70922;PMS5003;58573;28.942;-13.688;2023-01-28T03:56:43;7;7;
70922;PMS5003;58573;28.942;-13.688;2023-01-28T03:59:09;5;5;
70922;PMS5003;58573;28.942;-13.688;2023-01-28T04:01:35;4;4;
70922;PMS5003;58573;28.942;-13.688;2023-01-28T04:04:00;12;11;
70922;PMS5003;58573;28.942;-13.688;2023-01-28T04:06:25;4;4;
70922;PMS5003;58573;28.942;-13.688;2023-01-28T04:08:51;6;5;
70922;PMS5003;58573;28.942;-13.688;2023-01-28T04:11:16;7;6;
70922;PMS5003;58573;28.942;-13.688;2023-01-28T04:13:42;12;12;
70922;PMS5003;58573;28.942;-13.688;2023-01-28T04:16:08;11;11;
70922;PMS5003;58573;28.942;-13.688;2023-01-28T04:18:33;14;13;
70922;PMS5003;58573;28.942;-13.688;2023-01-28T04:20:59;11;10;
70922;PMS5003;58573;28.942;-13.688;2023-01-28T04:23:24;8;7;
70922;PMS5003;58573;28.942;-13.688;2023-01-28T04:25:50;7;7;
70922;PMS5003;58573;28.942;-13.688;2023-01-28T04:28:15;20;18;
70922;PMS5003;58573;28.942;-13.688;2023-01-28T04:30:41;23;23;
70922;PMS5003;58573;28.942;-13.688;2023-01-28T04:33:06;31;30;
70922;PMS5003;58573;28.942;-13.688;2023-01-28T04:35:32;2;1;
70922;PMS5003;58573;28.942;-13.688;2023-01-28T04:37:57;9;7;
70922;PMS5003;58573;28.942;-13.688;2023-01-28T04:40:23;6;4;
70922;PMS5003;58573;28.942;-13.688;2023-01-28T04:42:51;3;3;
70922;PMS5003;58573;28.942;-13.688;2023-01-28T04:45:14;5;5;
70922;PMS5003;58573;28.942;-13.688;2023-01-28T04:47:41;1;1;
70922;PMS5003;58573;28.942;-13.688;2023-01-28T04:50:05;14;11;
70922;PMS5003;58573;28.942;-13.688;2023-01-28T04:52:30;16;15;
70922;PMS5003;58573;28.942;-13.688;2023-01-28T04:54:55;45;44;
70922;PMS5003;58573;28.942;-13.688;2023-01-28T04:57:21;47;43;
70922;PMS5003;58573;28.942;-13.688;2023-01-28T04:59:46;28;27;
70922;PMS5003;58573;28.942;-13.688;2023-01-28T05:02:12;23;23;
70922;PMS5003;58573;28.942;-13.688;2023-01-28T05:04:37;9;9;
70922;PMS5003;58573;28.942;-13.688;2023-01-28T05:07:03;33;32;
70922;PMS5003;58573;28.942;-13.688;2023-01-28T05:09:28;23;22;
70922;PMS5003;58573;28.942;-13.688;2023-01-28T05:11:53;23;22;
70922;PMS5003;58573;28.942;-13.688;2023-01-28T05:14:19;20;20;
70922;PMS5003;58573;28.942;-13.688;2023-01-28T05:16:45;27;27;
70922;PMS5003;58573;28.942;-13.688;2023-01-28T05:19:10;21;20;
70922;PMS5003;58573;28.942;-13.688;2023-01-28T05:21:36;21;18;
70922;PMS5003;58573;28.942;-13.688;2023-01-28T05:24:01;2;1;
70922;PMS5003;58573;28.942;-13.688;2023-01-28T05:26:27;4;3;
70922;PMS5003;58573;28.942;-13.688;2023-01-28T05:28:53;2;2;
70922;PMS5003;58573;28.942;-13.688;2023-01-28T05:31:18;4;2;
70922;PMS5003;58573;28.942;-13.688;2023-01-28T05:33:44;6;5;
70922;PMS5003;58573;28.942;-13.688;2023-01-28T05:36:09;7;6;
70922;PMS5003;58573;28.942;-13.688;2023-01-28T05:38:35;2;2;
70922;PMS5003;58573;28.942;-13.688;2023-01-28T05:41:00;4;4;
70922;PMS5003;58573;28.942;-13.688;2023-01-28T05:43:26;3;1;
70922;PMS5003;58573;28.942;-13.688;2023-01-28T05:45:51;3;2;
70922;PMS5003;58573;28.942;-13.688;2023-01-28T05:48:17;2;2;
70922;PMS5003;58573;28.942;-13.688;2023-01-28T05:50:42;3;2;
70922;PMS5003;58573;28.942;-13.688;2023-01-28T05:53:08;12;12;
70922;PMS5003;58573;28.942;-13.688;2023-01-28T05:55:33;12;10;
70922;PMS5003;58573;28.942;-13.688;2023-01-28T05:57:59;9;8;
70922;PMS5003;58573;28.942;-13.688;2023-01-28T06:00:24;13;13;
70922;PMS5003;58573;28.942;-13.688;2023-01-28T06:02:50;8;7;
70922;PMS5003;58573;28.942;-13.688;2023-01-28T06:05:16;13;13;
70922;PMS5003;58573;28.942;-13.688;2023-01-28T06:07:43;32;32;
70922;PMS5003;58573;28.942;-13.688;2023-01-28T06:10:06;7;7;
70922;PMS5003;58573;28.942;-13.688;2023-01-28T06:12:31;32;30;
70922;PMS5003;58573;28.942;-13.688;2023-01-28T06:14:56;13;12;
70922;PMS5003;58573;28.942;-13.688;2023-01-28T06:17:22;19;19;
70922;PMS5003;58573;28.942;-13.688;2023-01-28T06:19:47;18;16;
70922;PMS5003;58573;28.942;-13.688;2023-01-28T06:22:13;20;20;
70922;PMS5003;58573;28.942;-13.688;2023-01-28T06:24:39;22;22;
70922;PMS5003;58573;28.942;-13.688;2023-01-28T06:27:05;22;21;
70922;PMS5003;58573;28.942;-13.688;2023-01-28T06:29:30;13;13;
70922;PMS5003;58573;28.942;-13.688;2023-01-28T06:31:55;4;4;
70922;PMS5003;58573;28.942;-13.688;2023-01-28T06:34:21;5;4;
70922;PMS5003;58573;28.942;-13.688;2023-01-28T06:36:46;8;8;
70922;PMS5003;58573;28.942;-13.688;2023-01-28T06:39:12;7;7;
70922;PMS5003;58573;28.942;-13.688;2023-01-28T06:41:38;2;2;
70922;PMS5003;58573;28.942;-13.688;2023-01-28T06:44:03;3;2;
70922;PMS5003;58573;28.942;-13.688;2023-01-28T06:46:28;2;1;
70922;PMS5003;58573;28.942;-13.688;2023-01-28T06:48:54;2;2;
70922;PMS5003;58573;28.942;-13.688;2023-01-28T06:51:20;2;2;
70922;PMS5003;58573;28.942;-13.688;2023-01-28T06:53:45;1;1;
70922;PMS5003;58573;28.942;-13.688;2023-01-28T06:56:11;4;4;
70922;PMS5003;58573;28.942;-13.688;2023-01-28T06:58:36;3;3;
70922;PMS5003;58573;28.942;-13.688;2023-01-28T07:01:02;3;3;
70922;PMS5003;58573;28.942;-13.688;2023-01-28T07:03:28;5;4;
70922;PMS5003;58573;28.942;-13.688;2023-01-28T07:05:53;0;0;
70922;PMS5003;58573;28.942;-13.688;2023-01-28T07:08:19;1;0;
70922;PMS5003;58573;28.942;-13.688;2023-01-28T07:10:44;1;0;
70922;PMS5003;58573;28.942;-13.688;2023-01-28T07:13:10;0;0;
70922;PMS5003;58573;28.942;-13.688;2023-01-28T07:15:36;1;0;
70922;PMS5003;58573;28.942;-13.688;2023-01-28T07:18:01;3;3;
70922;PMS5003;58573;28.942;-13.688;2023-01-28T07:20:27;3;2;
70922;PMS5003;58573;28.942;-13.688;2023-01-28T07:22:52;4;3;
70922;PMS5003;58573;28.942;-13.688;2023-01-28T07:25:18;2;2;
70922;PMS5003;58573;28.942;-13.688;2023-01-28T07:27:45;1;0;
70922;PMS5003;58573;28.942;-13.688;2023-01-28T07:30:10;1;1;
70922;PMS5003;58573;28.942;-13.688;2023-01-28T07:32:35;1;1;
70922;PMS5003;58573;28.942;-13.688;2023-01-28T07:35:00;1;1;
70922;PMS5003;58573;28.942;-13.688;2023-01-28T07:37:26;1;0;
70922;PMS5003;58573;28.942;-13.688;2023-01-28T07:39:51;1;0;
70922;PMS5003;58573;28.942;-13.688;2023-01-28T07:42:17;4;3;
70922;PMS5003;58573;28.942;-13.688;2023-01-28T07:44:42;0;0;
70922;PMS5003;58573;28.942;-13.688;2023-01-28T07:47:08;2;2;
70922;PMS5003;58573;28.942;-13.688;2023-01-28T07:49:34;1;0;
70922;PMS5003;58573;28.942;-13.688;2023-01-28T07:51:59;1;1;
70922;PMS5003;58573;28.942;-13.688;2023-01-28T07:54:25;4;4;
70922;PMS5003;58573;28.942;-13.688;2023-01-28T07:56:50;5;5;
70922;PMS5003;58573;28.942;-13.688;2023-01-28T07:59:16;5;5;
70922;PMS5003;58573;28.942;-13.688;2023-01-28T08:01:42;10;10;
70922;PMS5003;58573;28.942;-13.688;2023-01-28T08:04:07;3;2;
70922;PMS5003;58573;28.942;-13.688;2023-01-28T08:06:33;3;2;
70922;PMS5003;58573;28.942;-13.688;2023-01-28T08:08:59;2;1;
70922;PMS5003;58573;28.942;-13.688;2023-01-28T08:11:24;4;2;
70922;PMS5003;58573;28.942;-13.688;2023-01-28T08:13:49;2;2;
70922;PMS5003;58573;28.942;-13.688;2023-01-28T08:16:15;3;1;
70922;PMS5003;58573;28.942;-13.688;2023-01-28T08:18:41;2;2;
70922;PMS5003;58573;28.942;-13.688;2023-01-28T08:21:06;4;3;
70922;PMS5003;58573;28.942;-13.688;2023-01-28T08:23:32;1;1;
70922;PMS5003;58573;28.942;-13.688;2023-01-28T08:25:57;5;4;
70922;PMS5003;58573;28.942;-13.688;2023-01-28T08:28:23;25;25;
70922;PMS5003;58573;28.942;-13.688;2023-01-28T08:30:49;32;31;
70922;PMS5003;58573;28.942;-13.688;2023-01-28T08:33:14;12;11;
70922;PMS5003;58573;28.942;-13.688;2023-01-28T08:35:40;9;9;
70922;PMS5003;58573;28.942;-13.688;2023-01-28T08:38:05;7;6;
70922;PMS5003;58573;28.942;-13.688;2023-01-28T08:40:31;6;6;
70922;PMS5003;58573;28.942;-13.688;2023-01-28T08:42:56;7;6;
70922;PMS5003;58573;28.942;-13.688;2023-01-28T08:45:23;7;6;
70922;PMS5003;58573;28.942;-13.688;2023-01-28T08:47:48;2;2;
70922;PMS5003;58573;28.942;-13.688;2023-01-28T08:50:13;6;6;
70922;PMS5003;58573;28.942;-13.688;2023-01-28T08:52:39;13;12;
70922;PMS5003;58573;28.942;-13.688;2023-01-28T08:55:05;15;15;
70922;PMS5003;58573;28.942;-13.688;2023-01-28T08:57:30;22;20;
70922;PMS5003;58573;28.942;-13.688;2023-01-28T08:59:55;7;7;
70922;PMS5003;58573;28.942;-13.688;2023-01-28T09:02:20;19;19;
70922;PMS5003;58573;28.942;-13.688;2023-01-28T09:04:46;28;25;
70922;PMS5003;58573;28.942;-13.688;2023-01-28T09:07:11;14;14;
70922;PMS5003;58573;28.942;-13.688;2023-01-28T09:09:37;17;17;
70922;PMS5003;58573;28.942;-13.688;2023-01-28T09:12:03;6;6;
70922;PMS5003;58573;28.942;-13.688;2023-01-28T09:14:28;5;5;
70922;PMS5003;58573;28.942;-13.688;2023-01-28T09:16:54;5;5;
70922;PMS5003;58573;28.942;-13.688;2023-01-28T09:19:20;3;1;
70922;PMS5003;58573;28.942;-13.688;2023-01-28T09:21:45;1;0;
70922;PMS5003;58573;28.942;-13.688;2023-01-28T09:24:11;2;2;
70922;PMS5003;58573;28.942;-13.688;2023-01-28T09:26:36;1;1;
70922;PMS5003;58573;28.942;-13.688;2023-01-28T09:29:02;3;1;
70922;PMS5003;58573;28.942;-13.688;2023-01-28T09:31:27;3;2;
70922;PMS5003;58573;28.942;-13.688;2023-01-28T09:33:53;2;2;
70922;PMS5003;58573;28.942;-13.688;2023-01-28T09:36:18;4;2;
70922;PMS5003;58573;28.942;-13.688;2023-01-28T09:38:44;2;2;
70922;PMS5003;58573;28.942;-13.688;2023-01-28T09:41:14;4;3;
70922;PMS5003;58573;28.942;-13.688;2023-01-28T09:43:41;4;3;
70922;PMS5003;58573;28.942;-13.688;2023-01-28T09:46:02;8;6;
70922;PMS5003;58573;28.942;-13.688;2023-01-28T09:48:27;2;2;
70922;PMS5003;58573;28.942;-13.688;2023-01-28T09:50:51;3;2;
70922;PMS5003;58573;28.942;-13.688;2023-01-28T09:53:18;4;2;
70922;PMS5003;58573;28.942;-13.688;2023-01-28T09:55:43;2;0;
70922;PMS5003;58573;28.942;-13.688;2023-01-28T09:58:09;2;1;
70922;PMS5003;58573;28.942;-13.688;2023-01-28T10:00:34;2;2;
70922;PMS5003;58573;28.942;-13.688;2023-01-28T10:03:10;2;2;
70922;PMS5003;58573;28.942;-13.688;2023-01-28T10:05:25;3;3;
70922;PMS5003;58573;28.942;-13.688;2023-01-28T10:07:51;1;1;
70922;PMS5003;58573;28.942;-13.688;2023-01-28T10:10:15;2;2;
70922;PMS5003;58573;28.942;-13.688;2023-01-28T10:12:48;1;0;
70922;PMS5003;58573;28.942;-13.688;2023-01-28T10:15:12;1;1;
70922;PMS5003;58573;28.942;-13.688;2023-01-28T10:17:32;1;1;
70922;PMS5003;58573;28.942;-13.688;2023-01-28T10:19:57;3;1;
70922;PMS5003;58573;28.942;-13.688;2023-01-28T10:22:22;2;1;
70922;PMS5003;58573;28.942;-13.688;2023-01-28T10:24:48;1;1;
70922;PMS5003;58573;28.942;-13.688;2023-01-28T10:27:14;3;2;
70922;PMS5003;58573;28.942;-13.688;2023-01-28T10:29:38;2;1;
70922;PMS5003;58573;28.942;-13.688;2023-01-28T10:32:04;1;1;
70922;PMS5003;58573;28.942;-13.688;2023-01-28T10:34:29;3;2;
70922;PMS5003;58573;28.942;-13.688;2023-01-28T10:36:54;3;2;
70922;PMS5003;58573;28.942;-13.688;2023-01-28T10:39:20;3;2;
70922;PMS5003;58573;28.942;-13.688;2023-01-28T10:41:45;2;1;
70922;PMS5003;58573;28.942;-13.688;2023-01-28T10:44:12;8;5;
70922;PMS5003;58573;28.942;-13.688;2023-01-28T10:46:36;3;3;
70922;PMS5003;58573;28.942;-13.688;2023-01-28T10:49:04;1;1;
70922;PMS5003;58573;28.942;-13.688;2023-01-28T10:51:31;1;1;
70922;PMS5003;58573;28.942;-13.688;2023-01-28T10:53:52;0;0;
70922;PMS5003;58573;28.942;-13.688;2023-01-28T10:56:24;1;1;
70922;PMS5003;58573;28.942;-13.688;2023-01-28T10:58:49;2;2;
70922;PMS5003;58573;28.942;-13.688;2023-01-28T11:01:09;1;1;
70922;PMS5003;58573;28.942;-13.688;2023-01-28T11:03:51;1;1;
70922;PMS5003;58573;28.942;-13.688;2023-01-28T11:06:00;1;1;
70922;PMS5003;58573;28.942;-13.688;2023-01-28T11:08:26;3;2;
70922;PMS5003;58573;28.942;-13.688;2023-01-28T11:10:51;2;2;
70922;PMS5003;58573;28.942;-13.688;2023-01-28T11:13:17;2;1;
70922;PMS5003;58573;28.942;-13.688;2023-01-28T11:15:45;5;3;
70922;PMS5003;58573;28.942;-13.688;2023-01-28T11:20:34;3;3;
70922;PMS5003;58573;28.942;-13.688;2023-01-28T11:22:58;1;1;
70922;PMS5003;58573;28.942;-13.688;2023-01-28T11:25:26;1;1;
70922;PMS5003;58573;28.942;-13.688;2023-01-28T11:27:50;3;1;
70922;PMS5003;58573;28.942;-13.688;2023-01-28T11:30:18;5;5;
70922;PMS5003;58573;28.942;-13.688;2023-01-28T11:32:40;3;1;
70922;PMS5003;58573;28.942;-13.688;2023-01-28T11:35:06;1;0;
70922;PMS5003;58573;28.942;-13.688;2023-01-28T11:37:31;2;2;
70922;PMS5003;58573;28.942;-13.688;2023-01-28T11:40:00;2;2;
70922;PMS5003;58573;28.942;-13.688;2023-01-28T11:42:21;2;1;
70922;PMS5003;58573;28.942;-13.688;2023-01-28T11:44:47;3;2;
70922;PMS5003;58573;28.942;-13.688;2023-01-28T11:47:17;2;1;
70922;PMS5003;58573;28.942;-13.688;2023-01-28T11:49:42;2;1;
70922;PMS5003;58573;28.942;-13.688;2023-01-28T11:52:04;0;0;
70922;PMS5003;58573;28.942;-13.688;2023-01-28T11:54:33;4;3;
70922;PMS5003;58573;28.942;-13.688;2023-01-28T11:56:58;1;1;
70922;PMS5003;58573;28.942;-13.688;2023-01-28T11:59:24;1;1;
70922;PMS5003;58573;28.942;-13.688;2023-01-28T12:01:46;4;3;
70922;PMS5003;58573;28.942;-13.688;2023-01-28T12:04:15;1;0;
70922;PMS5003;58573;28.942;-13.688;2023-01-28T12:06:40;2;1;
70922;PMS5003;58573;28.942;-13.688;2023-01-28T12:09:05;0;0;
70922;PMS5003;58573;28.942;-13.688;2023-01-28T12:11:29;1;0;
70922;PMS5003;58573;28.942;-13.688;2023-01-28T12:13:55;1;1;
70922;PMS5003;58573;28.942;-13.688;2023-01-28T12:16:22;1;1;
70922;PMS5003;58573;28.942;-13.688;2023-01-28T12:18:51;5;4;
70922;PMS5003;58573;28.942;-13.688;2023-01-28T12:21:10;1;0;
70922;PMS5003;58573;28.942;-13.688;2023-01-28T12:23:39;0;0;
70922;PMS5003;58573;28.942;-13.688;2023-01-28T12:26:04;0;0;
70922;PMS5003;58573;28.942;-13.688;2023-01-28T12:28:29;0;0;
70922;PMS5003;58573;28.942;-13.688;2023-01-28T12:30:57;0;0;
70922;PMS5003;58573;28.942;-13.688;2023-01-28T12:35:45;3;3;
70922;PMS5003;58573;28.942;-13.688;2023-01-28T12:38:08;1;1;
70922;PMS5003;58573;28.942;-13.688;2023-01-28T12:40:45;1;1;
70922;PMS5003;58573;28.942;-13.688;2023-01-28T12:43:00;1;0;
70922;PMS5003;58573;28.942;-13.688;2023-01-28T12:45:24;1;1;
70922;PMS5003;58573;28.942;-13.688;2023-01-28T12:47:50;1;1;
70922;PMS5003;58573;28.942;-13.688;2023-01-28T12:50:15;1;1;
70922;PMS5003;58573;28.942;-13.688;2023-01-28T12:52:41;1;0;
70922;PMS5003;58573;28.942;-13.688;2023-01-28T12:55:10;2;1;
70922;PMS5003;58573;28.942;-13.688;2023-01-28T12:57:31;1;1;
70922;PMS5003;58573;28.942;-13.688;2023-01-28T12:59:57;2;1;
70922;PMS5003;58573;28.942;-13.688;2023-01-28T13:02:23;0;0;
70922;PMS5003;58573;28.942;-13.688;2023-01-28T13:04:49;1;0;
70922;PMS5003;58573;28.942;-13.688;2023-01-28T13:07:12;4;3;
70922;PMS5003;58573;28.942;-13.688;2023-01-28T13:09:38;2;2;
70922;PMS5003;58573;28.942;-13.688;2023-01-28T13:12:03;1;1;
70922;PMS5003;58573;28.942;-13.688;2023-01-28T13:14:29;3;3;
70922;PMS5003;58573;28.942;-13.688;2023-01-28T13:16:54;4;2;
70922;PMS5003;58573;28.942;-13.688;2023-01-28T13:19:23;4;3;
70922;PMS5003;58573;28.942;-13.688;2023-01-28T13:21:45;3;2;
70922;PMS5003;58573;28.942;-13.688;2023-01-28T13:24:20;2;2;
70922;PMS5003;58573;28.942;-13.688;2023-01-28T13:26:36;1;0;
70922;PMS5003;58573;28.942;-13.688;2023-01-28T13:29:07;2;2;
70922;PMS5003;58573;28.942;-13.688;2023-01-28T13:31:26;3;2;
70922;PMS5003;58573;28.942;-13.688;2023-01-28T13:36:21;2;0;
70922;PMS5003;58573;28.942;-13.688;2023-01-28T13:38:42;2;2;
70922;PMS5003;58573;28.942;-13.688;2023-01-28T13:41:07;1;0;
70922;PMS5003;58573;28.942;-13.688;2023-01-28T13:43:35;1;1;
70922;PMS5003;58573;28.942;-13.688;2023-01-28T13:45:59;2;1;
70922;PMS5003;58573;28.942;-13.688;2023-01-28T13:48:28;2;2;
70922;PMS5003;58573;28.942;-13.688;2023-01-28T13:50:49;5;4;
70922;PMS5003;58573;28.942;-13.688;2023-01-28T13:53:18;4;3;
70922;PMS5003;58573;28.942;-13.688;2023-01-28T13:55:41;2;1;
70922;PMS5003;58573;28.942;-13.688;2023-01-28T14:00:31;3;2;
70922;PMS5003;58573;28.942;-13.688;2023-01-28T14:03:01;2;2;
70922;PMS5003;58573;28.942;-13.688;2023-01-28T14:07:51;1;1;
70922;PMS5003;58573;28.942;-13.688;2023-01-28T14:10:15;2;1;
70922;PMS5003;58573;28.942;-13.688;2023-01-28T14:15:06;1;1;
70922;PMS5003;58573;28.942;-13.688;2023-01-28T14:17:29;2;2;
70922;PMS5003;58573;28.942;-13.688;2023-01-28T14:19:53;1;1;
70922;PMS5003;58573;28.942;-13.688;2023-01-28T14:22:19;2;1;
70922;PMS5003;58573;28.942;-13.688;2023-01-28T14:24:44;1;0;
70922;PMS5003;58573;28.942;-13.688;2023-01-28T14:27:11;1;1;
70922;PMS5003;58573;28.942;-13.688;2023-01-28T14:29:40;1;1;
70922;PMS5003;58573;28.942;-13.688;2023-01-28T14:32:03;2;2;
70922;PMS5003;58573;28.942;-13.688;2023-01-28T14:34:27;2;1;
70922;PMS5003;58573;28.942;-13.688;2023-01-28T14:36:52;1;1;
70922;PMS5003;58573;28.942;-13.688;2023-01-28T14:39:18;3;1;
70922;PMS5003;58573;28.942;-13.688;2023-01-28T14:41:43;1;1;
70922;PMS5003;58573;28.942;-13.688;2023-01-28T14:44:08;2;1;
70922;PMS5003;58573;28.942;-13.688;2023-01-28T14:46:34;4;2;
70922;PMS5003;58573;28.942;-13.688;2023-01-28T14:49:04;3;3;
70922;PMS5003;58573;28.942;-13.688;2023-01-28T14:53:54;3;3;
70922;PMS5003;58573;28.942;-13.688;2023-01-28T14:56:17;1;1;
70922;PMS5003;58573;28.942;-13.688;2023-01-28T14:58:40;1;1;
70922;PMS5003;58573;28.942;-13.688;2023-01-28T15:03:31;3;3;
70922;PMS5003;58573;28.942;-13.688;2023-01-28T15:06:01;1;1;
70922;PMS5003;58573;28.942;-13.688;2023-01-28T15:08:22;2;2;
70922;PMS5003;58573;28.942;-13.688;2023-01-28T15:10:48;6;5;
70922;PMS5003;58573;28.942;-13.688;2023-01-28T15:13:15;5;5;
70922;PMS5003;58573;28.942;-13.688;2023-01-28T15:15:40;2;2;
70922;PMS5003;58573;28.942;-13.688;2023-01-28T15:18:11;3;2;
70922;PMS5003;58573;28.942;-13.688;2023-01-28T15:20:30;2;1;
70922;PMS5003;58573;28.942;-13.688;2023-01-28T15:22:56;1;1;
70922;PMS5003;58573;28.942;-13.688;2023-01-28T15:25:22;3;2;
70922;PMS5003;58573;28.942;-13.688;2023-01-28T15:27:47;1;1;
70922;PMS5003;58573;28.942;-13.688;2023-01-28T15:30:18;4;1;
70922;PMS5003;58573;28.942;-13.688;2023-01-28T15:32:37;0;0;
70922;PMS5003;58573;28.942;-13.688;2023-01-28T15:35:05;2;2;
70922;PMS5003;58573;28.942;-13.688;2023-01-28T15:37:28;1;0;
70922;PMS5003;58573;28.942;-13.688;2023-01-28T15:39:59;1;0;
70922;PMS5003;58573;28.942;-13.688;2023-01-28T15:42:20;1;0;
70922;PMS5003;58573;28.942;-13.688;2023-01-28T15:44:45;0;0;
70922;PMS5003;58573;28.942;-13.688;2023-01-28T15:47:12;2;0;
70922;PMS5003;58573;28.942;-13.688;2023-01-28T15:49:36;0;0;
70922;PMS5003;58573;28.942;-13.688;2023-01-28T15:52:01;0;0;
70922;PMS5003;58573;28.942;-13.688;2023-01-28T15:54:27;0;0;
70922;PMS5003;58573;28.942;-13.688;2023-01-28T15:56:52;3;1;
70922;PMS5003;58573;28.942;-13.688;2023-01-28T15:59:20;1;0;
70922;PMS5003;58573;28.942;-13.688;2023-01-28T16:01:43;0;0;
70922;PMS5003;58573;28.942;-13.688;2023-01-28T16:06:35;1;1;
70922;PMS5003;58573;28.942;-13.688;2023-01-28T16:09:00;0;0;
70922;PMS5003;58573;28.942;-13.688;2023-01-28T16:11:26;2;1;
70922;PMS5003;58573;28.942;-13.688;2023-01-28T16:13:50;2;1;
70922;PMS5003;58573;28.942;-13.688;2023-01-28T16:16:22;0;0;
70922;PMS5003;58573;28.942;-13.688;2023-01-28T16:18:42;1;1;
70922;PMS5003;58573;28.942;-13.688;2023-01-28T16:21:08;2;1;
70922;PMS5003;58573;28.942;-13.688;2023-01-28T16:23:32;0;0;
70922;PMS5003;58573;28.942;-13.688;2023-01-28T16:25:58;2;1;
70922;PMS5003;58573;28.942;-13.688;2023-01-28T16:28:23;1;1;